sensor_id;sensor_type;location;lat;lon;timestamp;temperature;humidity
12761;DHT22;6444;49.742;6.114;2022-09-13T00:00:38;16.80;99.90
12761;DHT22;6444;49.742;6.114;2022-09-13T00:03:05;17.00;99.90
12761;DHT22;6444;49.742;6.114;2022-09-13T00:05:32;16.90;99.90
12761;DHT22;6444;49.742;6.114;2022-09-13T00:07:58;16.90;99.90
12761;DHT22;6444;49.742;6.114;2022-09-13T00:10:25;17.00;99.90
12761;DHT22;6444;49.742;6.114;2022-09-13T00:12:52;17.00;99.90
12761;DHT22;6444;49.742;6.114;2022-09-13T00:15:19;15.40;99.90
12761;DHT22;6444;49.742;6.114;2022-09-13T00:17:45;15.30;99.90
12761;DHT22;6444;49.742;6.114;2022-09-13T00:20:12;15.70;99.90
12761;DHT22;6444;49.742;6.114;2022-09-13T00:22:39;15.30;99.90
12761;DHT22;6444;49.742;6.114;2022-09-13T00:25:05;15.40;99.90
12761;DHT22;6444;49.742;6.114;2022-09-13T00:27:35;15.90;99.90
12761;DHT22;6444;49.742;6.114;2022-09-13T00:30:03;16.50;99.90
12761;DHT22;6444;49.742;6.114;2022-09-13T00:32:29;16.50;99.90
12761;DHT22;6444;49.742;6.114;2022-09-13T00:34:56;16.70;99.90
12761;DHT22;6444;49.742;6.114;2022-09-13T00:37:22;16.80;99.90
12761;DHT22;6444;49.742;6.114;2022-09-13T00:39:49;16.90;99.90
12761;DHT22;6444;49.742;6.114;2022-09-13T00:42:16;17.00;99.90
12761;DHT22;6444;49.742;6.114;2022-09-13T00:44:53;17.00;99.90
12761;DHT22;6444;49.742;6.114;2022-09-13T00:47:19;17.00;99.90
12761;DHT22;6444;49.742;6.114;2022-09-13T00:49:45;17.10;99.90
12761;DHT22;6444;49.742;6.114;2022-09-13T00:52:13;17.10;99.90
12761;DHT22;6444;49.742;6.114;2022-09-13T00:54:40;17.20;99.90
12761;DHT22;6444;49.742;6.114;2022-09-13T00:57:05;17.30;99.90
12761;DHT22;6444;49.742;6.114;2022-09-13T00:59:48;17.30;99.90
12761;DHT22;6444;49.742;6.114;2022-09-13T01:02:13;17.20;99.90
12761;DHT22;6444;49.742;6.114;2022-09-13T01:04:40;17.10;99.90
12761;DHT22;6444;49.742;6.114;2022-09-13T01:07:08;17.10;99.90
12761;DHT22;6444;49.742;6.114;2022-09-13T01:09:37;17.10;99.90
12761;DHT22;6444;49.742;6.114;2022-09-13T01:12:13;17.20;99.90
12761;DHT22;6444;49.742;6.114;2022-09-13T01:14:35;17.20;99.90
12761;DHT22;6444;49.742;6.114;2022-09-13T01:17:02;17.00;99.90
12761;DHT22;6444;49.742;6.114;2022-09-13T01:19:29;17.00;99.90
12761;DHT22;6444;49.742;6.114;2022-09-13T01:27:22;17.30;99.90
12761;DHT22;6444;49.742;6.114;2022-09-13T01:46:08;16.50;99.90
12761;DHT22;6444;49.742;6.114;2022-09-13T01:48:38;16.80;99.90
12761;DHT22;6444;49.742;6.114;2022-09-13T01:51:14;16.90;99.90
12761;DHT22;6444;49.742;6.114;2022-09-13T01:53:42;16.90;99.90
12761;DHT22;6444;49.742;6.114;2022-09-13T01:56:22;17.00;99.90
12761;DHT22;6444;49.742;6.114;2022-09-13T01:58:48;17.00;99.90
12761;DHT22;6444;49.742;6.114;2022-09-13T02:06:32;17.10;99.90
12761;DHT22;6444;49.742;6.114;2022-09-13T02:09:07;17.20;99.90
12761;DHT22;6444;49.742;6.114;2022-09-13T02:11:28;17.10;99.90
12761;DHT22;6444;49.742;6.114;2022-09-13T02:14:08;17.10;99.90
12761;DHT22;6444;49.742;6.114;2022-09-13T02:16:35;17.10;99.90
12761;DHT22;6444;49.742;6.114;2022-09-13T02:19:05;16.80;99.90
12761;DHT22;6444;49.742;6.114;2022-09-13T02:21:30;17.00;99.90
12761;DHT22;6444;49.742;6.114;2022-09-13T02:24:03;17.20;99.90
12761;DHT22;6444;49.742;6.114;2022-09-13T02:26:29;17.30;99.90
12761;DHT22;6444;49.742;6.114;2022-09-13T02:28:56;17.10;99.90
12761;DHT22;6444;49.742;6.114;2022-09-13T02:31:27;17.30;99.90
12761;DHT22;6444;49.742;6.114;2022-09-13T02:33:53;17.50;99.90
12761;DHT22;6444;49.742;6.114;2022-09-13T02:36:22;17.10;99.90
12761;DHT22;6444;49.742;6.114;2022-09-13T02:38:50;16.90;99.90
12761;DHT22;6444;49.742;6.114;2022-09-13T02:43:52;17.10;99.90
12761;DHT22;6444;49.742;6.114;2022-09-13T02:46:24;17.20;99.90
12761;DHT22;6444;49.742;6.114;2022-09-13T02:48:48;17.10;99.90
12761;DHT22;6444;49.742;6.114;2022-09-13T02:59:14;16.20;99.90
12761;DHT22;6444;49.742;6.114;2022-09-13T03:01:39;16.60;99.90
12761;DHT22;6444;49.742;6.114;2022-09-13T03:04:06;16.90;99.90
12761;DHT22;6444;49.742;6.114;2022-09-13T03:06:32;17.20;99.90
12761;DHT22;6444;49.742;6.114;2022-09-13T03:08:59;17.30;99.90
12761;DHT22;6444;49.742;6.114;2022-09-13T03:25:40;15.10;99.90
12761;DHT22;6444;49.742;6.114;2022-09-13T03:27:34;14.60;99.90
12761;DHT22;6444;49.742;6.114;2022-09-13T03:30:06;15.30;99.90
12761;DHT22;6444;49.742;6.114;2022-09-13T03:35:32;15.30;99.90
12761;DHT22;6444;49.742;6.114;2022-09-13T03:38:20;15.20;99.90
12761;DHT22;6444;49.742;6.114;2022-09-13T03:40:47;15.80;99.90
12761;DHT22;6444;49.742;6.114;2022-09-13T03:43:44;16.30;99.90
12761;DHT22;6444;49.742;6.114;2022-09-13T03:45:53;15.90;99.90
12761;DHT22;6444;49.742;6.114;2022-09-13T03:48:16;15.80;99.90
12761;DHT22;6444;49.742;6.114;2022-09-13T03:50:44;16.20;99.90
12761;DHT22;6444;49.742;6.114;2022-09-13T03:53:10;16.50;99.90
12761;DHT22;6444;49.742;6.114;2022-09-13T03:55:39;16.30;99.90
12761;DHT22;6444;49.742;6.114;2022-09-13T03:58:03;17.10;99.90
12761;DHT22;6444;49.742;6.114;2022-09-13T04:00:29;17.00;99.90
12761;DHT22;6444;49.742;6.114;2022-09-13T04:02:56;17.40;99.90
12761;DHT22;6444;49.742;6.114;2022-09-13T04:05:23;17.30;99.90
12761;DHT22;6444;49.742;6.114;2022-09-13T04:07:49;17.40;99.90
12761;DHT22;6444;49.742;6.114;2022-09-13T04:10:16;17.60;99.90
12761;DHT22;6444;49.742;6.114;2022-09-13T04:12:43;17.30;99.90
12761;DHT22;6444;49.742;6.114;2022-09-13T04:15:09;17.50;99.90
12761;DHT22;6444;49.742;6.114;2022-09-13T04:17:36;17.80;99.90
12761;DHT22;6444;49.742;6.114;2022-09-13T04:20:03;18.00;99.90
12761;DHT22;6444;49.742;6.114;2022-09-13T04:22:29;18.10;99.90
12761;DHT22;6444;49.742;6.114;2022-09-13T04:24:56;18.00;99.90
12761;DHT22;6444;49.742;6.114;2022-09-13T04:27:22;18.20;99.90
12761;DHT22;6444;49.742;6.114;2022-09-13T04:29:49;17.90;99.90
12761;DHT22;6444;49.742;6.114;2022-09-13T04:32:16;18.00;99.90
12761;DHT22;6444;49.742;6.114;2022-09-13T04:34:43;17.80;99.90
12761;DHT22;6444;49.742;6.114;2022-09-13T04:37:10;17.70;99.90
12761;DHT22;6444;49.742;6.114;2022-09-13T04:39:36;17.50;99.90
12761;DHT22;6444;49.742;6.114;2022-09-13T04:42:03;17.60;99.90
12761;DHT22;6444;49.742;6.114;2022-09-13T04:44:30;17.60;99.90
12761;DHT22;6444;49.742;6.114;2022-09-13T04:46:56;17.80;99.90
12761;DHT22;6444;49.742;6.114;2022-09-13T04:49:23;17.90;99.90
12761;DHT22;6444;49.742;6.114;2022-09-13T04:51:49;17.80;99.90
12761;DHT22;6444;49.742;6.114;2022-09-13T04:54:16;18.10;99.90
12761;DHT22;6444;49.742;6.114;2022-09-13T04:56:43;18.00;99.90
12761;DHT22;6444;49.742;6.114;2022-09-13T04:59:10;18.20;99.90
12761;DHT22;6444;49.742;6.114;2022-09-13T05:01:36;18.40;99.90
12761;DHT22;6444;49.742;6.114;2022-09-13T05:04:03;18.00;99.90
12761;DHT22;6444;49.742;6.114;2022-09-13T05:06:30;17.20;99.90
12761;DHT22;6444;49.742;6.114;2022-09-13T05:08:57;17.20;99.90
12761;DHT22;6444;49.742;6.114;2022-09-13T05:11:24;17.40;99.90
12761;DHT22;6444;49.742;6.114;2022-09-13T05:13:50;17.80;99.90
12761;DHT22;6444;49.742;6.114;2022-09-13T05:16:17;17.00;99.90
12761;DHT22;6444;49.742;6.114;2022-09-13T05:18:43;17.30;99.90
12761;DHT22;6444;49.742;6.114;2022-09-13T05:21:11;16.90;99.90
12761;DHT22;6444;49.742;6.114;2022-09-13T05:23:37;16.90;99.90
12761;DHT22;6444;49.742;6.114;2022-09-13T05:26:04;17.30;99.90
12761;DHT22;6444;49.742;6.114;2022-09-13T05:28:32;17.40;99.90
12761;DHT22;6444;49.742;6.114;2022-09-13T05:31:00;16.80;99.90
12761;DHT22;6444;49.742;6.114;2022-09-13T05:33:27;16.90;99.90
12761;DHT22;6444;49.742;6.114;2022-09-13T05:35:54;16.50;99.90
12761;DHT22;6444;49.742;6.114;2022-09-13T05:38:20;16.40;99.90
12761;DHT22;6444;49.742;6.114;2022-09-13T05:40:47;16.60;99.90
12761;DHT22;6444;49.742;6.114;2022-09-13T05:43:13;16.90;99.90
12761;DHT22;6444;49.742;6.114;2022-09-13T05:45:40;17.20;99.90
12761;DHT22;6444;49.742;6.114;2022-09-13T05:48:07;17.50;99.90
12761;DHT22;6444;49.742;6.114;2022-09-13T05:50:37;17.50;99.90
12761;DHT22;6444;49.742;6.114;2022-09-13T05:53:04;17.60;99.90
12761;DHT22;6444;49.742;6.114;2022-09-13T05:55:30;18.00;99.90
12761;DHT22;6444;49.742;6.114;2022-09-13T05:57:57;18.30;99.90
12761;DHT22;6444;49.742;6.114;2022-09-13T06:00:23;18.30;99.90
12761;DHT22;6444;49.742;6.114;2022-09-13T06:02:50;18.20;99.90
12761;DHT22;6444;49.742;6.114;2022-09-13T06:05:17;18.20;99.90
12761;DHT22;6444;49.742;6.114;2022-09-13T06:07:43;18.60;99.90
12761;DHT22;6444;49.742;6.114;2022-09-13T06:10:10;18.50;99.90
12761;DHT22;6444;49.742;6.114;2022-09-13T06:12:37;18.20;99.90
12761;DHT22;6444;49.742;6.114;2022-09-13T06:15:03;18.60;99.90
12761;DHT22;6444;49.742;6.114;2022-09-13T06:17:30;18.90;99.90
12761;DHT22;6444;49.742;6.114;2022-09-13T06:19:57;19.20;99.90
12761;DHT22;6444;49.742;6.114;2022-09-13T06:22:23;19.30;99.90
12761;DHT22;6444;49.742;6.114;2022-09-13T06:24:50;19.10;99.90
12761;DHT22;6444;49.742;6.114;2022-09-13T06:27:17;19.40;99.90
12761;DHT22;6444;49.742;6.114;2022-09-13T06:29:44;19.80;99.90
12761;DHT22;6444;49.742;6.114;2022-09-13T06:32:11;19.70;99.90
12761;DHT22;6444;49.742;6.114;2022-09-13T06:34:37;19.90;99.90
12761;DHT22;6444;49.742;6.114;2022-09-13T06:37:04;20.00;99.90
12761;DHT22;6444;49.742;6.114;2022-09-13T06:39:30;19.60;99.90
12761;DHT22;6444;49.742;6.114;2022-09-13T06:41:58;19.80;99.90
12761;DHT22;6444;49.742;6.114;2022-09-13T06:44:27;19.80;99.90
12761;DHT22;6444;49.742;6.114;2022-09-13T06:46:54;20.00;99.90
12761;DHT22;6444;49.742;6.114;2022-09-13T06:49:20;20.20;99.90
12761;DHT22;6444;49.742;6.114;2022-09-13T06:51:47;20.50;99.90
12761;DHT22;6444;49.742;6.114;2022-09-13T06:54:14;20.70;99.90
12761;DHT22;6444;49.742;6.114;2022-09-13T06:56:40;20.80;99.90
12761;DHT22;6444;49.742;6.114;2022-09-13T06:59:08;21.00;99.90
12761;DHT22;6444;49.742;6.114;2022-09-13T07:01:34;21.20;99.90
12761;DHT22;6444;49.742;6.114;2022-09-13T07:04:01;21.30;99.90
12761;DHT22;6444;49.742;6.114;2022-09-13T07:06:28;21.70;99.90
12761;DHT22;6444;49.742;6.114;2022-09-13T07:08:54;22.10;99.90
12761;DHT22;6444;49.742;6.114;2022-09-13T07:11:21;22.30;99.90
12761;DHT22;6444;49.742;6.114;2022-09-13T07:13:50;22.60;99.90
12761;DHT22;6444;49.742;6.114;2022-09-13T07:16:16;22.60;99.90
12761;DHT22;6444;49.742;6.114;2022-09-13T07:18:43;22.80;99.90
12761;DHT22;6444;49.742;6.114;2022-09-13T07:21:10;22.70;99.90
12761;DHT22;6444;49.742;6.114;2022-09-13T07:23:37;22.60;99.90
12761;DHT22;6444;49.742;6.114;2022-09-13T07:26:04;22.40;99.90
12761;DHT22;6444;49.742;6.114;2022-09-13T07:28:37;22.30;99.90
12761;DHT22;6444;49.742;6.114;2022-09-13T07:31:16;21.80;99.90
12761;DHT22;6444;49.742;6.114;2022-09-13T07:33:42;21.40;99.90
12761;DHT22;6444;49.742;6.114;2022-09-13T07:36:09;21.30;99.90
12761;DHT22;6444;49.742;6.114;2022-09-13T07:38:35;21.40;99.90
12761;DHT22;6444;49.742;6.114;2022-09-13T07:41:02;21.60;99.90
12761;DHT22;6444;49.742;6.114;2022-09-13T07:43:29;22.00;99.90
12761;DHT22;6444;49.742;6.114;2022-09-13T07:46:00;21.90;99.90
12761;DHT22;6444;49.742;6.114;2022-09-13T07:48:27;21.50;99.90
12761;DHT22;6444;49.742;6.114;2022-09-13T07:51:03;21.50;99.90
12761;DHT22;6444;49.742;6.114;2022-09-13T07:53:29;21.60;99.90
12761;DHT22;6444;49.742;6.114;2022-09-13T07:56:17;21.90;99.90
12761;DHT22;6444;49.742;6.114;2022-09-13T07:58:40;22.20;99.90
12761;DHT22;6444;49.742;6.114;2022-09-13T08:01:16;21.40;99.90
12761;DHT22;6444;49.742;6.114;2022-09-13T08:03:42;21.50;99.90
12761;DHT22;6444;49.742;6.114;2022-09-13T08:06:08;21.60;99.90
12761;DHT22;6444;49.742;6.114;2022-09-13T08:08:35;21.40;99.90
12761;DHT22;6444;49.742;6.114;2022-09-13T08:11:03;21.50;99.90
12761;DHT22;6444;49.742;6.114;2022-09-13T08:13:28;21.80;99.90
12761;DHT22;6444;49.742;6.114;2022-09-13T08:15:55;22.20;99.90
12761;DHT22;6444;49.742;6.114;2022-09-13T08:18:21;22.40;99.90
12761;DHT22;6444;49.742;6.114;2022-09-13T08:20:48;22.60;99.90
12761;DHT22;6444;49.742;6.114;2022-09-13T08:23:15;22.80;99.90
12761;DHT22;6444;49.742;6.114;2022-09-13T08:25:41;23.00;99.90
12761;DHT22;6444;49.742;6.114;2022-09-13T08:28:08;22.90;99.90
12761;DHT22;6444;49.742;6.114;2022-09-13T08:30:35;22.10;99.90
12761;DHT22;6444;49.742;6.114;2022-09-13T08:33:02;21.40;99.90
12761;DHT22;6444;49.742;6.114;2022-09-13T08:37:57;21.10;99.90
12761;DHT22;6444;49.742;6.114;2022-09-13T08:40:25;21.80;99.90
12761;DHT22;6444;49.742;6.114;2022-09-13T08:42:52;22.30;99.90
12761;DHT22;6444;49.742;6.114;2022-09-13T08:45:17;22.60;99.90
12761;DHT22;6444;49.742;6.114;2022-09-13T08:48:49;22.10;99.90
12761;DHT22;6444;49.742;6.114;2022-09-13T08:50:26;22.00;99.90
12761;DHT22;6444;49.742;6.114;2022-09-13T08:53:16;21.80;99.90
12761;DHT22;6444;49.742;6.114;2022-09-13T09:01:07;21.40;99.90
12761;DHT22;6444;49.742;6.114;2022-09-13T09:03:37;21.20;99.90
12761;DHT22;6444;49.742;6.114;2022-09-13T09:06:00;21.30;99.90
12761;DHT22;6444;49.742;6.114;2022-09-13T09:08:29;21.60;99.90
12761;DHT22;6444;49.742;6.114;2022-09-13T09:10:54;21.90;99.90
12761;DHT22;6444;49.742;6.114;2022-09-13T09:15:55;22.10;99.90
12761;DHT22;6444;49.742;6.114;2022-09-13T09:18:29;22.00;99.90
12761;DHT22;6444;49.742;6.114;2022-09-13T09:20:55;21.70;99.90
12761;DHT22;6444;49.742;6.114;2022-09-13T09:23:29;21.60;99.90
12761;DHT22;6444;49.742;6.114;2022-09-13T09:26:00;21.90;99.90
12761;DHT22;6444;49.742;6.114;2022-09-13T09:28:23;22.10;99.90
12761;DHT22;6444;49.742;6.114;2022-09-13T09:38:52;21.80;99.90
12761;DHT22;6444;49.742;6.114;2022-09-13T09:46:18;20.60;99.90
12761;DHT22;6444;49.742;6.114;2022-09-13T09:48:45;20.60;99.90
12761;DHT22;6444;49.742;6.114;2022-09-13T09:51:11;21.90;99.90
12761;DHT22;6444;49.742;6.114;2022-09-13T09:53:44;21.80;99.90
12761;DHT22;6444;49.742;6.114;2022-09-13T09:56:23;22.20;99.90
12761;DHT22;6444;49.742;6.114;2022-09-13T09:58:50;22.40;99.90
12761;DHT22;6444;49.742;6.114;2022-09-13T10:03:47;21.60;99.90
12761;DHT22;6444;49.742;6.114;2022-09-13T10:06:13;21.70;99.90
12761;DHT22;6444;49.742;6.114;2022-09-13T10:08:41;22.20;99.90
12761;DHT22;6444;49.742;6.114;2022-09-13T10:11:09;22.00;99.90
12761;DHT22;6444;49.742;6.114;2022-09-13T10:13:35;22.00;99.90
12761;DHT22;6444;49.742;6.114;2022-09-13T10:16:05;22.10;99.90
12761;DHT22;6444;49.742;6.114;2022-09-13T10:18:29;22.50;99.90
12761;DHT22;6444;49.742;6.114;2022-09-13T10:23:44;22.90;99.90
12761;DHT22;6444;49.742;6.114;2022-09-13T10:26:14;22.80;99.90
12761;DHT22;6444;49.742;6.114;2022-09-13T10:28:43;23.00;99.90
12761;DHT22;6444;49.742;6.114;2022-09-13T10:31:07;23.30;99.90
12761;DHT22;6444;49.742;6.114;2022-09-13T10:33:35;23.90;99.90
12761;DHT22;6444;49.742;6.114;2022-09-13T10:36:00;24.20;99.90
12761;DHT22;6444;49.742;6.114;2022-09-13T10:38:30;23.80;99.90
12761;DHT22;6444;49.742;6.114;2022-09-13T10:40:57;23.90;99.90
12761;DHT22;6444;49.742;6.114;2022-09-13T10:43:23;23.80;99.90
12761;DHT22;6444;49.742;6.114;2022-09-13T10:45:50;24.30;99.90
12761;DHT22;6444;49.742;6.114;2022-09-13T10:48:17;24.90;99.90
12761;DHT22;6444;49.742;6.114;2022-09-13T10:51:00;24.60;99.90
12761;DHT22;6444;49.742;6.114;2022-09-13T10:53:38;24.50;99.90
12761;DHT22;6444;49.742;6.114;2022-09-13T10:56:07;25.20;99.90
12761;DHT22;6444;49.742;6.114;2022-09-13T10:58:32;25.20;99.90
12761;DHT22;6444;49.742;6.114;2022-09-13T11:01:32;26.20;99.90
12761;DHT22;6444;49.742;6.114;2022-09-13T11:09:35;25.90;99.90
12761;DHT22;6444;49.742;6.114;2022-09-13T11:17:25;26.30;99.90
12761;DHT22;6444;49.742;6.114;2022-09-13T11:27:37;27.60;99.90
12761;DHT22;6444;49.742;6.114;2022-09-13T11:30:03;27.50;99.90
12761;DHT22;6444;49.742;6.114;2022-09-13T11:32:42;27.70;99.90
12761;DHT22;6444;49.742;6.114;2022-09-13T11:38:02;26.70;99.90
12761;DHT22;6444;49.742;6.114;2022-09-13T11:51:06;26.90;99.90
12761;DHT22;6444;49.742;6.114;2022-09-13T11:54:00;27.20;99.90
12761;DHT22;6444;49.742;6.114;2022-09-13T11:56:34;27.30;99.90
12761;DHT22;6444;49.742;6.114;2022-09-13T12:01:32;27.50;99.90
12761;DHT22;6444;49.742;6.114;2022-09-13T12:06:29;27.40;99.90
12761;DHT22;6444;49.742;6.114;2022-09-13T12:08:58;27.50;99.90
12761;DHT22;6444;49.742;6.114;2022-09-13T12:11:32;27.70;99.90
12761;DHT22;6444;49.742;6.114;2022-09-13T12:14:00;27.60;99.90
12761;DHT22;6444;49.742;6.114;2022-09-13T12:16:27;27.50;99.90
12761;DHT22;6444;49.742;6.114;2022-09-13T12:18:53;27.60;99.90
12761;DHT22;6444;49.742;6.114;2022-09-13T12:21:19;27.80;99.90
12761;DHT22;6444;49.742;6.114;2022-09-13T12:26:42;27.60;99.90
12761;DHT22;6444;49.742;6.114;2022-09-13T12:29:17;27.50;99.90
12761;DHT22;6444;49.742;6.114;2022-09-13T12:31:42;27.40;99.90
12761;DHT22;6444;49.742;6.114;2022-09-13T12:34:10;27.60;99.90
12761;DHT22;6444;49.742;6.114;2022-09-13T12:45:14;27.20;99.90
12761;DHT22;6444;49.742;6.114;2022-09-13T12:48:18;27.20;99.90
12761;DHT22;6444;49.742;6.114;2022-09-13T12:50:59;27.70;99.90
12761;DHT22;6444;49.742;6.114;2022-09-13T12:56:23;27.70;99.90
12761;DHT22;6444;49.742;6.114;2022-09-13T13:01:30;27.30;99.90
12761;DHT22;6444;49.742;6.114;2022-09-13T13:04:36;26.90;99.90
12761;DHT22;6444;49.742;6.114;2022-09-13T13:06:54;26.40;99.90
12761;DHT22;6444;49.742;6.114;2022-09-13T13:11:59;26.90;99.90
12761;DHT22;6444;49.742;6.114;2022-09-13T13:23:29;27.20;99.90
12761;DHT22;6444;49.742;6.114;2022-09-13T13:26:04;26.70;99.90
12761;DHT22;6444;49.742;6.114;2022-09-13T13:33:53;26.80;99.90
12761;DHT22;6444;49.742;6.114;2022-09-13T13:36:24;27.60;99.90
12761;DHT22;6444;49.742;6.114;2022-09-13T13:38:50;27.50;99.90
12761;DHT22;6444;49.742;6.114;2022-09-13T13:43:59;27.80;99.90
12761;DHT22;6444;49.742;6.114;2022-09-13T13:46:27;28.10;99.90
12761;DHT22;6444;49.742;6.114;2022-09-13T13:48:52;28.20;99.90
12761;DHT22;6444;49.742;6.114;2022-09-13T13:51:22;28.20;99.90
12761;DHT22;6444;49.742;6.114;2022-09-13T13:53:56;28.30;99.90
12761;DHT22;6444;49.742;6.114;2022-09-13T13:56:23;28.50;99.90
12761;DHT22;6444;49.742;6.114;2022-09-13T13:58:57;28.40;99.90
12761;DHT22;6444;49.742;6.114;2022-09-13T14:01:24;28.50;99.90
12761;DHT22;6444;49.742;6.114;2022-09-13T14:19:54;28.20;99.90
12761;DHT22;6444;49.742;6.114;2022-09-13T14:22:24;28.30;99.90
12761;DHT22;6444;49.742;6.114;2022-09-13T14:24:51;28.30;99.90
12761;DHT22;6444;49.742;6.114;2022-09-13T14:27:27;28.20;99.90
12761;DHT22;6444;49.742;6.114;2022-09-13T14:29:54;28.00;99.90
12761;DHT22;6444;49.742;6.114;2022-09-13T14:32:23;28.00;99.90
12761;DHT22;6444;49.742;6.114;2022-09-13T14:34:52;27.90;99.90
12761;DHT22;6444;49.742;6.114;2022-09-13T14:37:17;27.70;99.90
12761;DHT22;6444;49.742;6.114;2022-09-13T14:42:24;27.10;99.90
12761;DHT22;6444;49.742;6.114;2022-09-13T14:44:51;27.20;99.90
12761;DHT22;6444;49.742;6.114;2022-09-13T14:47:23;27.20;99.90
12761;DHT22;6444;49.742;6.114;2022-09-13T14:49:51;27.20;99.90
12761;DHT22;6444;49.742;6.114;2022-09-13T14:52:19;27.30;99.90
12761;DHT22;6444;49.742;6.114;2022-09-13T14:54:43;27.20;99.90
12761;DHT22;6444;49.742;6.114;2022-09-13T14:57:17;27.20;99.90
12761;DHT22;6444;49.742;6.114;2022-09-13T14:59:41;27.30;99.90
12761;DHT22;6444;49.742;6.114;2022-09-13T15:02:12;27.40;99.90
12761;DHT22;6444;49.742;6.114;2022-09-13T15:04:33;27.00;99.90
12761;DHT22;6444;49.742;6.114;2022-09-13T15:07:17;27.10;99.90
12761;DHT22;6444;49.742;6.114;2022-09-13T15:09:35;27.30;99.90
12761;DHT22;6444;49.742;6.114;2022-09-13T15:12:03;26.30;99.90
12761;DHT22;6444;49.742;6.114;2022-09-13T15:14:33;26.20;99.90
12761;DHT22;6444;49.742;6.114;2022-09-13T15:17:11;26.40;99.90
12761;DHT22;6444;49.742;6.114;2022-09-13T15:19:49;26.40;99.90
12761;DHT22;6444;49.742;6.114;2022-09-13T15:22:28;26.70;99.90
12761;DHT22;6444;49.742;6.114;2022-09-13T15:24:56;27.10;99.90
12761;DHT22;6444;49.742;6.114;2022-09-13T15:27:27;27.30;99.90
12761;DHT22;6444;49.742;6.114;2022-09-13T15:29:57;27.40;99.90
12761;DHT22;6444;49.742;6.114;2022-09-13T15:32:32;27.30;99.90
12761;DHT22;6444;49.742;6.114;2022-09-13T15:34:58;27.40;99.90
12761;DHT22;6444;49.742;6.114;2022-09-13T15:37:28;27.20;99.90
12761;DHT22;6444;49.742;6.114;2022-09-13T15:40:16;27.20;99.90
12761;DHT22;6444;49.742;6.114;2022-09-13T15:42:48;27.30;99.90
12761;DHT22;6444;49.742;6.114;2022-09-13T15:45:14;27.30;99.90
12761;DHT22;6444;49.742;6.114;2022-09-13T15:47:43;27.00;99.90
12761;DHT22;6444;49.742;6.114;2022-09-13T15:50:08;27.10;99.90
12761;DHT22;6444;49.742;6.114;2022-09-13T15:52:34;26.90;99.90
12761;DHT22;6444;49.742;6.114;2022-09-13T15:55:00;27.00;99.90
12761;DHT22;6444;49.742;6.114;2022-09-13T15:57:27;27.10;99.90
12761;DHT22;6444;49.742;6.114;2022-09-13T15:59:54;26.70;99.90
12761;DHT22;6444;49.742;6.114;2022-09-13T16:02:24;26.50;99.90
12761;DHT22;6444;49.742;6.114;2022-09-13T16:04:50;26.30;99.90
12761;DHT22;6444;49.742;6.114;2022-09-13T16:07:17;26.40;99.90
12761;DHT22;6444;49.742;6.114;2022-09-13T16:09:44;26.30;99.90
12761;DHT22;6444;49.742;6.114;2022-09-13T16:12:11;26.60;99.90
12761;DHT22;6444;49.742;6.114;2022-09-13T16:14:37;26.70;99.90
12761;DHT22;6444;49.742;6.114;2022-09-13T16:17:11;26.80;99.90
12761;DHT22;6444;49.742;6.114;2022-09-13T16:19:37;26.80;99.90
12761;DHT22;6444;49.742;6.114;2022-09-13T16:22:03;26.70;99.90
12761;DHT22;6444;49.742;6.114;2022-09-13T16:24:30;26.60;99.90
12761;DHT22;6444;49.742;6.114;2022-09-13T16:26:58;26.60;99.90
12761;DHT22;6444;49.742;6.114;2022-09-13T16:29:23;26.20;99.90
12761;DHT22;6444;49.742;6.114;2022-09-13T16:31:50;26.30;99.90
12761;DHT22;6444;49.742;6.114;2022-09-13T16:34:16;26.20;99.90
12761;DHT22;6444;49.742;6.114;2022-09-13T16:36:43;25.80;99.90
12761;DHT22;6444;49.742;6.114;2022-09-13T16:39:10;25.60;99.90
12761;DHT22;6444;49.742;6.114;2022-09-13T16:41:37;25.70;99.90
12761;DHT22;6444;49.742;6.114;2022-09-13T16:44:03;25.80;99.90
12761;DHT22;6444;49.742;6.114;2022-09-13T16:46:30;25.90;99.90
12761;DHT22;6444;49.742;6.114;2022-09-13T16:48:57;26.10;99.90
12761;DHT22;6444;49.742;6.114;2022-09-13T16:51:24;26.00;99.90
12761;DHT22;6444;49.742;6.114;2022-09-13T16:53:51;26.10;99.90
12761;DHT22;6444;49.742;6.114;2022-09-13T16:56:17;26.10;99.90
12761;DHT22;6444;49.742;6.114;2022-09-13T16:58:44;26.00;99.90
12761;DHT22;6444;49.742;6.114;2022-09-13T17:01:12;25.80;99.90
12761;DHT22;6444;49.742;6.114;2022-09-13T17:03:38;25.80;99.90
12761;DHT22;6444;49.742;6.114;2022-09-13T17:06:05;25.80;99.90
12761;DHT22;6444;49.742;6.114;2022-09-13T17:08:31;25.80;99.90
12761;DHT22;6444;49.742;6.114;2022-09-13T17:10:58;25.80;99.90
12761;DHT22;6444;49.742;6.114;2022-09-13T17:13:25;25.70;99.90
12761;DHT22;6444;49.742;6.114;2022-09-13T17:15:51;25.70;99.90
12761;DHT22;6444;49.742;6.114;2022-09-13T17:18:18;25.50;99.90
12761;DHT22;6444;49.742;6.114;2022-09-13T17:20:45;25.40;99.90
12761;DHT22;6444;49.742;6.114;2022-09-13T17:23:11;25.40;99.90
12761;DHT22;6444;49.742;6.114;2022-09-13T17:25:41;25.20;99.90
12761;DHT22;6444;49.742;6.114;2022-09-13T17:28:07;24.90;99.90
12761;DHT22;6444;49.742;6.114;2022-09-13T17:30:34;24.50;99.90
12761;DHT22;6444;49.742;6.114;2022-09-13T17:33:00;24.00;99.90
12761;DHT22;6444;49.742;6.114;2022-09-13T17:35:27;24.20;99.90
12761;DHT22;6444;49.742;6.114;2022-09-13T17:37:53;24.40;99.90
12761;DHT22;6444;49.742;6.114;2022-09-13T17:40:20;24.30;99.90
12761;DHT22;6444;49.742;6.114;2022-09-13T17:42:47;23.80;99.90
12761;DHT22;6444;49.742;6.114;2022-09-13T17:45:14;24.10;99.90
12761;DHT22;6444;49.742;6.114;2022-09-13T17:47:41;24.00;99.90
12761;DHT22;6444;49.742;6.114;2022-09-13T17:50:07;24.00;99.90
12761;DHT22;6444;49.742;6.114;2022-09-13T17:52:34;23.60;99.90
12761;DHT22;6444;49.742;6.114;2022-09-13T17:55:01;23.30;99.90
12761;DHT22;6444;49.742;6.114;2022-09-13T17:57:27;23.40;99.90
12761;DHT22;6444;49.742;6.114;2022-09-13T17:59:54;23.40;99.90
12761;DHT22;6444;49.742;6.114;2022-09-13T18:02:21;23.60;99.90
12761;DHT22;6444;49.742;6.114;2022-09-13T18:04:50;23.80;99.90
12761;DHT22;6444;49.742;6.114;2022-09-13T18:07:17;24.00;99.90
12761;DHT22;6444;49.742;6.114;2022-09-13T18:09:44;23.90;99.90
12761;DHT22;6444;49.742;6.114;2022-09-13T18:12:11;23.90;99.90
12761;DHT22;6444;49.742;6.114;2022-09-13T18:14:37;23.90;99.90
12761;DHT22;6444;49.742;6.114;2022-09-13T18:17:04;24.00;99.90
12761;DHT22;6444;49.742;6.114;2022-09-13T18:19:32;24.00;99.90
12761;DHT22;6444;49.742;6.114;2022-09-13T18:21:58;23.90;99.90
12761;DHT22;6444;49.742;6.114;2022-09-13T18:24:25;23.90;99.90
12761;DHT22;6444;49.742;6.114;2022-09-13T18:26:51;23.90;99.90
12761;DHT22;6444;49.742;6.114;2022-09-13T18:29:18;23.80;99.90
12761;DHT22;6444;49.742;6.114;2022-09-13T18:31:45;23.90;99.90
12761;DHT22;6444;49.742;6.114;2022-09-13T18:34:12;23.90;99.90
12761;DHT22;6444;49.742;6.114;2022-09-13T18:36:38;23.80;99.90
12761;DHT22;6444;49.742;6.114;2022-09-13T18:39:05;23.30;99.90
12761;DHT22;6444;49.742;6.114;2022-09-13T18:41:38;22.70;99.90
12761;DHT22;6444;49.742;6.114;2022-09-13T18:44:01;22.80;99.90
12761;DHT22;6444;49.742;6.114;2022-09-13T18:46:28;23.20;99.90